createdAt,value
2019-02-08T00:01:37.409Z,100308.78
2019-02-08T00:04:03.180Z,100312.80
2019-02-08T00:06:29.033Z,100315.80
2019-02-08T00:08:54.803Z,100318.48
2019-02-08T00:11:20.552Z,100323.52
2019-02-08T00:13:46.317Z,100322.17
2019-02-08T00:16:12.068Z,100316.48
2019-02-08T00:18:37.859Z,100324.22
2019-02-08T00:21:03.929Z,100331.67
2019-02-08T00:23:29.688Z,100328.19
2019-02-08T00:25:55.471Z,100326.16
2019-02-08T00:28:21.242Z,100336.89
2019-02-08T00:30:47.091Z,100337.22
2019-02-08T00:33:12.872Z,100337.41
2019-02-08T00:35:38.623Z,100343.25
2019-02-08T00:38:04.381Z,100342.91
2019-02-08T00:40:30.133Z,100341.09
2019-02-08T00:42:57.801Z,100340.91
2019-02-08T00:45:23.578Z,100362.00
2019-02-08T00:47:49.479Z,100344.44
2019-02-08T00:50:35.116Z,100349.94
2019-02-08T00:53:00.877Z,100360.98
2019-02-08T00:55:26.752Z,100360.33
2019-02-08T00:57:54.431Z,100363.34
2019-02-08T01:01:01.888Z,100371.08
2019-02-08T01:03:27.654Z,100366.22
2019-02-08T01:05:53.405Z,100382.76
2019-02-08T01:09:02.760Z,100371.56
2019-02-08T01:11:28.508Z,100379.75
2019-02-08T01:13:54.273Z,100377.45
2019-02-08T01:16:20.050Z,100376.45
2019-02-08T01:18:45.956Z,100373.29
2019-02-08T01:21:11.713Z,100378.31
2019-02-08T01:23:41.178Z,100374.64
2019-02-08T01:26:05.340Z,100368.80
2019-02-08T01:28:31.140Z,100371.15
2019-02-08T01:30:56.886Z,100369.28
2019-02-08T01:33:22.636Z,100375.16
2019-02-08T01:35:48.397Z,100391.52
2019-02-08T01:38:14.159Z,100383.86
2019-02-08T01:40:39.928Z,100373.16
2019-02-08T01:43:47.387Z,100379.52
2019-02-08T01:46:13.136Z,100377.50
2019-02-08T01:48:38.892Z,100388.21
2019-02-08T01:51:04.655Z,100382.48
2019-02-08T01:53:30.417Z,100383.67
2019-02-08T01:55:56.211Z,100390.84
2019-02-08T01:58:21.982Z,100389.02
2019-02-08T02:00:47.745Z,100389.52
2019-02-08T02:03:13.509Z,100392.52
2019-02-08T02:06:20.946Z,100392.19
2019-02-08T02:08:46.695Z,100386.53
2019-02-08T02:11:12.485Z,100392.38
2019-02-08T02:13:38.232Z,100385.54
2019-02-08T02:16:04.231Z,100387.02
2019-02-08T02:18:31.676Z,100401.27
2019-02-08T02:20:57.478Z,100410.12
2019-02-08T02:23:23.225Z,100407.58
2019-02-08T02:25:48.990Z,100412.41
2019-02-08T02:28:14.748Z,100405.05
2019-02-08T02:30:40.515Z,100414.42
2019-02-08T02:33:47.943Z,100423.97
2019-02-08T02:36:13.711Z,100414.09
2019-02-08T02:38:39.479Z,100420.97
2019-02-08T02:41:05.239Z,100423.34
2019-02-08T02:43:32.521Z,100418.67
2019-02-08T02:45:58.692Z,100424.17
2019-02-08T02:48:24.455Z,100422.50
2019-02-08T02:50:50.226Z,100425.70
2019-02-08T02:53:16.001Z,100425.13
2019-02-08T02:55:41.913Z,100420.77
2019-02-08T02:58:07.646Z,100428.32
2019-02-08T03:01:15.105Z,100429.66
2019-02-08T03:03:41.002Z,100436.50
2019-02-08T03:06:06.783Z,100436.98
2019-02-08T03:08:32.538Z,100446.70
2019-02-08T03:10:58.304Z,100449.05
2019-02-08T03:13:24.078Z,100434.35
2019-02-08T03:15:49.871Z,100448.07
2019-02-08T03:18:15.640Z,100449.75
2019-02-08T03:20:41.421Z,100449.38
2019-02-08T03:23:07.278Z,100448.41
2019-02-08T03:28:47.122Z,100450.91
2019-02-08T03:31:12.937Z,100453.25
2019-02-08T03:33:38.685Z,100448.75
2019-02-08T03:36:04.442Z,100443.72
2019-02-08T03:38:30.211Z,100453.62
2019-02-08T03:40:56.063Z,100451.77
2019-02-08T03:43:21.840Z,100449.75
2019-02-08T03:48:54.801Z,100454.29
2019-02-08T03:51:20.557Z,100468.02
2019-02-08T03:53:46.326Z,100466.15
2019-02-08T03:56:12.078Z,100475.67
2019-02-08T03:58:37.853Z,100471.99
2019-02-08T04:03:51.129Z,100479.20
2019-02-08T04:06:16.885Z,100483.41
2019-02-08T04:08:42.673Z,100484.56
2019-02-08T04:11:08.410Z,100481.36
2019-02-08T04:13:34.181Z,100493.56
2019-02-08T04:15:59.935Z,100476.16
2019-02-08T04:18:25.693Z,100480.36
2019-02-08T04:20:51.456Z,100481.17
2019-02-08T04:23:17.238Z,100487.20
2019-02-08T04:25:43.010Z,100490.55
2019-02-08T04:28:08.782Z,100493.90
2019-02-08T04:30:34.657Z,100502.60
2019-02-08T04:33:42.103Z,100492.22
2019-02-08T04:36:07.857Z,100500.74
2019-02-08T04:38:33.618Z,100501.78
2019-02-08T04:40:59.378Z,100497.58
2019-02-08T04:43:25.179Z,100508.44
2019-02-08T04:45:51.057Z,100513.12
2019-02-08T04:48:18.097Z,100508.78
2019-02-08T04:50:46.879Z,100516.30
2019-02-08T04:53:13.043Z,100511.30
2019-02-08T04:55:39.174Z,100516.33
2019-02-08T04:58:05.095Z,100511.16
2019-02-08T05:03:44.616Z,100524.03
2019-02-08T05:06:10.378Z,100516.33
2019-02-08T05:08:36.132Z,100517.33
2019-02-08T05:11:01.911Z,100512.64
2019-02-08T05:13:27.683Z,100504.95
2019-02-08T05:15:53.445Z,100511.00
2019-02-08T05:18:19.208Z,100514.69
2019-02-08T05:20:44.993Z,100520.04
2019-02-08T05:23:10.746Z,100514.86
2019-02-08T05:25:36.510Z,100514.53
2019-02-08T05:31:09.660Z,100522.74
2019-02-08T05:33:35.411Z,100525.42
2019-02-08T05:36:01.189Z,100521.38
2019-02-08T05:38:26.925Z,100517.21
2019-02-08T05:40:52.689Z,100517.03
2019-02-08T05:43:18.457Z,100522.56
2019-02-08T05:45:44.221Z,100521.72
2019-02-08T05:48:09.977Z,100518.85
2019-02-08T05:50:35.749Z,100527.92
2019-02-08T05:53:01.507Z,100520.38
2019-02-08T05:56:08.964Z,100515.35
2019-02-08T05:58:34.717Z,100513.70
2019-02-08T06:01:00.479Z,100518.39
2019-02-08T06:03:26.243Z,100504.34
2019-02-08T06:05:52.030Z,100498.66
2019-02-08T06:08:17.870Z,100513.02
2019-02-08T06:10:43.658Z,100500.47
2019-02-08T06:13:09.512Z,100502.30
2019-02-08T06:16:16.960Z,100500.63
2019-02-08T06:18:42.816Z,100499.62
2019-02-08T06:21:08.598Z,100509.00
2019-02-08T06:23:34.362Z,100509.17
2019-02-08T06:26:00.143Z,100503.64
2019-02-08T06:28:25.904Z,100505.65
2019-02-08T06:30:51.674Z,100509.84
2019-02-08T06:33:17.421Z,100504.98
2019-02-08T06:35:43.173Z,100518.03
2019-02-08T06:38:09.036Z,100519.38
2019-02-08T06:40:54.665Z,100520.05
2019-02-08T06:43:20.449Z,100523.39
2019-02-08T06:45:46.213Z,100521.05
2019-02-08T06:48:11.988Z,100524.91
2019-02-08T06:50:37.743Z,100538.11
2019-02-08T06:53:03.607Z,100540.27
2019-02-08T06:55:29.373Z,100537.11
2019-02-08T06:58:15.339Z,100532.94
2019-02-08T07:07:06.182Z,100541.61
2019-02-08T07:09:51.927Z,100543.96
2019-02-08T07:12:37.584Z,100547.98
2019-02-08T07:21:15.454Z,100543.11
2019-02-08T07:24:01.120Z,100552.30
2019-02-08T07:32:07.516Z,100555.83
2019-02-08T07:34:53.170Z,100556.84
2019-02-08T07:38:00.594Z,100559.67
2019-02-08T07:41:08.055Z,100563.50
2019-02-08T07:43:53.828Z,100567.70
2019-02-08T07:47:01.255Z,100562.69
2019-02-08T07:50:08.702Z,100544.75
2019-02-08T07:53:16.137Z,100550.93
2019-02-08T07:56:23.589Z,100558.30
2019-02-08T07:59:09.340Z,100554.95
2019-02-08T08:02:16.791Z,100555.09
2019-02-08T08:07:36.112Z,100549.41
2019-02-08T08:10:43.571Z,100544.38
2019-02-08T08:13:29.213Z,100539.84
2019-02-08T08:16:14.881Z,100549.06
2019-02-08T08:19:00.532Z,100547.35
2019-02-08T08:21:46.211Z,100545.53
2019-02-08T08:24:53.648Z,100545.05
2019-02-08T08:28:01.096Z,100555.91
2019-02-08T08:30:46.863Z,100546.38
2019-02-08T08:33:54.295Z,100549.39
2019-02-08T08:37:01.736Z,100545.19
2019-02-08T08:40:09.163Z,100546.67
2019-02-08T08:43:15.275Z,100543.84
2019-02-08T08:46:22.760Z,100543.66
2019-02-08T08:49:30.191Z,100536.63
2019-02-08T08:52:35.729Z,100551.03
2019-02-08T08:55:42.456Z,100542.99
2019-02-08T08:58:49.930Z,100541.32
2019-02-08T09:01:55.465Z,100550.36
2019-02-08T09:05:00.993Z,100542.13
2019-02-08T09:08:06.555Z,100534.56
2019-02-08T09:11:13.995Z,100530.21
2019-02-08T09:14:21.421Z,100539.58
2019-02-08T09:17:26.959Z,100538.92
2019-02-08T09:20:32.505Z,100535.75
2019-02-08T09:23:38.051Z,100531.69
2019-02-08T09:26:43.590Z,100539.20
2019-02-08T09:29:49.122Z,100541.59
2019-02-08T09:32:56.580Z,100531.87
2019-02-08T09:36:04.011Z,100532.83
2019-02-08T09:39:09.543Z,100525.45
2019-02-08T09:42:15.083Z,100525.45
2019-02-08T09:45:20.626Z,100518.41
2019-02-08T09:48:26.176Z,100525.79
2019-02-08T09:51:31.693Z,100511.23
2019-02-08T09:54:39.139Z,100512.23
2019-02-08T09:57:46.588Z,100512.72
2019-02-08T10:00:52.112Z,100516.08
2019-02-08T10:03:57.646Z,100517.32
2019-02-08T10:07:03.182Z,100513.45
2019-02-08T10:10:10.634Z,100521.30
2019-02-08T10:13:16.155Z,100518.61
2019-02-08T10:16:21.683Z,100523.12
2019-02-08T10:19:27.225Z,100535.84
2019-02-08T10:22:34.668Z,100529.94
2019-02-08T10:25:40.205Z,100530.46
2019-02-08T10:28:45.756Z,100522.03
2019-02-08T10:31:53.188Z,100507.91
2019-02-08T10:34:58.712Z,100508.22
2019-02-08T10:38:04.269Z,100508.22
2019-02-08T10:41:11.694Z,100500.98
2019-02-08T10:44:17.222Z,100511.37
2019-02-08T10:47:22.744Z,100512.64
2019-02-08T10:50:28.323Z,100504.45
2019-02-08T10:53:33.810Z,100505.34
2019-02-08T10:56:39.355Z,100505.34
2019-02-08T10:59:44.897Z,100496.50
2019-02-08T11:02:52.358Z,100500.20
2019-02-08T11:05:59.785Z,100496.85
2019-02-08T11:09:05.307Z,100493.51
2019-02-08T11:12:10.845Z,100488.28
2019-02-08T11:15:16.395Z,100493.98
2019-02-08T11:18:21.909Z,100487.79
2019-02-08T11:20:47.694Z,100483.81
2019-02-08T11:23:13.457Z,100480.64
2019-02-08T11:25:39.221Z,100475.93
2019-02-08T11:28:04.979Z,100471.86
2019-02-08T11:30:30.739Z,100463.64
2019-02-08T11:32:56.499Z,100468.13
2019-02-08T11:35:22.307Z,100451.16
2019-02-08T11:37:48.071Z,100451.02
2019-02-08T11:40:33.718Z,100453.73
2019-02-08T11:42:59.487Z,100443.98
2019-02-08T11:45:25.339Z,100449.90
2019-02-08T11:47:51.110Z,100445.23
2019-02-08T11:50:58.561Z,100445.35
2019-02-08T11:53:24.320Z,100440.31
2019-02-08T11:55:50.091Z,100437.98
2019-02-08T11:58:15.951Z,100435.08
2019-02-08T12:03:19.995Z,100428.11
2019-02-08T12:05:45.763Z,100434.67
2019-02-08T12:08:11.629Z,100426.79
2019-02-08T12:10:37.391Z,100417.27
2019-02-08T12:13:44.862Z,100420.08
2019-02-08T12:16:10.941Z,100413.21
2019-02-08T12:18:36.884Z,100417.52
2019-02-08T12:21:02.788Z,100410.53
2019-02-08T12:23:28.886Z,100407.33
2019-02-08T12:25:54.801Z,100403.44
2019-02-08T12:28:20.818Z,100393.69
2019-02-08T12:30:46.742Z,100395.55
2019-02-08T12:33:12.510Z,100392.02
2019-02-08T12:35:38.431Z,100386.27
2019-02-08T12:38:04.198Z,100388.66
2019-02-08T12:40:30.208Z,100381.62
2019-02-08T12:42:56.262Z,100373.28
2019-02-08T12:48:49.168Z,100367.62
2019-02-08T12:51:15.038Z,100363.27
2019-02-08T12:53:40.839Z,100364.94
2019-02-08T12:56:06.688Z,100353.61
2019-02-08T12:58:33.129Z,100362.94
2019-02-08T13:00:58.886Z,100350.69
2019-02-08T13:03:24.713Z,100347.32
2019-02-08T13:05:50.469Z,100348.79
2019-02-08T13:08:16.293Z,100348.56
2019-02-08T13:10:42.219Z,100345.48
2019-02-08T13:13:07.987Z,100339.44
2019-02-08T13:15:33.760Z,100338.66
2019-02-08T13:17:59.526Z,100339.17
2019-02-08T13:20:25.350Z,100330.60
2019-02-08T13:22:51.105Z,100330.41
2019-02-08T13:25:58.583Z,100321.82
2019-02-08T13:28:24.353Z,100317.92
2019-02-08T13:30:50.100Z,100313.70
2019-02-08T13:33:16.584Z,100318.94
2019-02-08T13:35:43.530Z,100312.46
2019-02-08T13:38:09.292Z,100296.81
2019-02-08T13:40:35.060Z,100299.17
2019-02-08T13:43:00.923Z,100294.45
2019-02-08T13:46:08.365Z,100294.00
2019-02-08T13:48:34.126Z,100294.17
2019-02-08T13:50:59.907Z,100287.46
2019-02-08T13:53:25.661Z,100288.11
2019-02-08T13:55:51.439Z,100285.95
2019-02-08T13:58:17.189Z,100281.80
2019-02-08T14:00:43.086Z,100283.76
2019-02-08T14:03:08.842Z,100272.01
2019-02-08T14:05:34.611Z,100276.36
2019-02-08T14:08:00.368Z,100279.05
2019-02-08T14:10:26.164Z,100280.84
2019-02-08T14:12:52.012Z,100275.02
2019-02-08T14:15:59.473Z,100283.72
2019-02-08T14:18:25.226Z,100278.39
2019-02-08T14:20:51.015Z,100277.66
2019-02-08T14:23:16.766Z,100258.87
2019-02-08T14:25:42.532Z,100261.52
2019-02-08T14:28:08.303Z,100256.52
2019-02-08T14:31:15.772Z,100255.75
2019-02-08T14:33:41.533Z,100250.05
2019-02-08T14:36:07.367Z,100247.52
2019-02-08T14:38:33.166Z,100245.61
2019-02-08T14:40:58.936Z,100249.11
2019-02-08T14:43:24.710Z,100248.09
2019-02-08T14:45:50.473Z,100242.88
2019-02-08T14:48:16.243Z,100235.52
2019-02-08T14:50:42.013Z,100241.34
2019-02-08T14:53:07.780Z,100233.48
2019-02-08T14:55:33.530Z,100249.27
2019-02-08T14:58:40.963Z,100244.75
2019-02-08T15:01:06.731Z,100235.67
2019-02-08T15:03:32.489Z,100231.64
2019-02-08T15:05:58.264Z,100207.77
2019-02-08T15:08:24.028Z,100225.87
2019-02-08T15:14:03.511Z,100215.91
2019-02-08T15:16:29.279Z,100213.54
2019-02-08T15:18:55.045Z,100214.52
2019-02-08T15:21:20.828Z,100209.63
2019-02-08T15:23:46.581Z,100206.58
2019-02-08T15:26:12.333Z,100200.19
2019-02-08T15:28:38.117Z,100203.69
2019-02-08T15:31:04.102Z,100194.86
2019-02-08T15:33:29.870Z,100186.31
2019-02-08T15:35:55.634Z,100183.63
2019-02-08T15:38:21.413Z,100188.03
2019-02-08T15:41:28.845Z,100181.96
2019-02-08T15:43:54.615Z,100175.95
2019-02-08T15:46:20.465Z,100178.95
2019-02-08T15:48:46.332Z,100175.63
2019-02-08T15:51:12.112Z,100173.52
2019-02-08T15:53:37.878Z,100178.04
2019-02-08T15:56:45.313Z,100171.33
2019-02-08T15:59:11.087Z,100175.87
2019-02-08T16:01:36.852Z,100171.53
2019-02-08T16:04:44.321Z,100172.67
2019-02-08T16:07:11.609Z,100175.11
2019-02-08T16:09:37.768Z,100166.36
2019-02-08T16:12:03.623Z,100168.58
2019-02-08T16:14:29.392Z,100153.04
2019-02-08T16:16:55.156Z,100156.42
2019-02-08T16:19:20.919Z,100147.11
2019-02-08T16:21:46.689Z,100138.85
2019-02-08T16:24:12.460Z,100143.08
2019-02-08T16:26:38.222Z,100137.77
2019-02-08T16:32:17.255Z,100125.69
2019-02-08T16:34:43.133Z,100129.77
2019-02-08T16:37:08.902Z,100129.77
2019-02-08T16:39:34.678Z,100124.47
2019-02-08T16:42:00.451Z,100112.08
2019-02-08T16:44:26.227Z,100118.09
2019-02-08T16:46:51.988Z,100107.03
2019-02-08T16:49:17.763Z,100105.22
2019-02-08T16:51:43.511Z,100104.92
2019-02-08T16:54:09.273Z,100102.09
2019-02-08T16:56:35.050Z,100097.56
2019-02-08T16:59:00.807Z,100094.36
2019-02-08T17:01:26.570Z,100086.84
2019-02-08T17:03:52.344Z,100094.56
2019-02-08T17:06:18.103Z,100081.64
2019-02-08T17:08:43.867Z,100085.17
2019-02-08T17:11:09.636Z,100080.38
2019-02-08T17:13:35.400Z,100081.14
2019-02-08T17:16:01.279Z,100076.59
2019-02-08T17:18:27.024Z,100075.95
2019-02-08T17:20:52.903Z,100073.09
2019-02-08T17:23:18.667Z,100077.44
2019-02-08T17:25:44.442Z,100067.47
2019-02-08T17:28:10.298Z,100053.41
2019-02-08T17:30:36.162Z,100056.42
2019-02-08T17:33:02.027Z,100052.39
2019-02-08T17:36:09.503Z,100046.91
2019-02-08T17:38:35.698Z,100035.97
2019-02-08T17:41:44.613Z,100017.39
2019-02-08T17:44:10.380Z,100024.91
2019-02-08T17:46:36.154Z,100015.58
2019-02-08T17:49:01.903Z,100016.05
2019-02-08T17:51:27.679Z,100007.15
2019-02-08T17:53:53.432Z,100011.44
2019-02-08T17:56:19.204Z,100010.59
2019-02-08T17:58:44.961Z,100011.23
2019-02-08T18:01:10.719Z,100004.64
2019-02-08T18:03:36.473Z,100003.71
2019-02-08T18:06:02.240Z,99998.34
2019-02-08T18:08:28.004Z,99983.70
2019-02-08T18:10:53.877Z,99981.02
2019-02-08T18:13:19.731Z,99983.11
2019-02-08T18:15:45.476Z,99968.61
2019-02-08T18:18:52.921Z,99974.30
2019-02-08T18:21:18.722Z,99965.66
2019-02-08T18:23:44.478Z,99957.40
2019-02-08T18:26:10.242Z,99953.38
2019-02-08T18:28:36.008Z,99943.91
2019-02-08T18:31:01.770Z,99954.65
2019-02-08T18:33:27.538Z,99949.77
2019-02-08T18:35:53.302Z,99944.98
2019-02-08T18:38:19.126Z,99938.27
2019-02-08T18:40:44.878Z,99923.93
2019-02-08T18:43:10.648Z,99922.16
2019-02-08T18:45:36.435Z,99929.51
2019-02-08T18:48:43.879Z,99921.98
2019-02-08T18:51:09.643Z,99917.47
2019-02-08T18:53:35.421Z,99922.73
2019-02-08T18:56:01.174Z,99919.55
2019-02-08T18:58:26.941Z,99907.26
2019-02-08T19:01:34.404Z,99909.34
2019-02-08T19:04:00.172Z,99903.48
2019-02-08T19:06:25.929Z,99897.89
2019-02-08T19:08:51.700Z,99897.82
2019-02-08T19:11:17.464Z,99892.48
2019-02-08T19:13:43.238Z,99882.23
2019-02-08T19:16:08.999Z,99875.73
2019-02-08T19:18:34.772Z,99872.13
2019-02-08T19:21:00.546Z,99866.43
2019-02-08T19:23:26.322Z,99871.52
2019-02-08T19:25:52.073Z,99859.24
2019-02-08T19:28:17.842Z,99865.75
2019-02-08T19:30:43.795Z,99855.63
2019-02-08T19:33:09.570Z,99859.13
2019-02-08T19:35:35.323Z,99846.55
2019-02-08T19:38:42.774Z,99839.44
2019-02-08T19:41:08.526Z,99842.14
2019-02-08T19:43:34.293Z,99836.84
2019-02-08T19:46:00.048Z,99827.95
2019-02-08T19:48:25.821Z,99819.48
2019-02-08T19:50:51.571Z,99817.11
2019-02-08T19:53:17.330Z,99809.37
2019-02-08T19:55:43.075Z,99808.13
2019-02-08T19:58:50.526Z,99802.87
2019-02-08T20:01:16.288Z,99807.39
2019-02-08T20:03:42.058Z,99794.50
2019-02-08T20:06:07.817Z,99796.33
2019-02-08T20:08:33.620Z,99794.67
2019-02-08T20:10:59.389Z,99789.31
2019-02-08T20:13:25.159Z,99774.83
2019-02-08T20:15:50.915Z,99779.09
2019-02-08T20:18:16.664Z,99775.88
2019-02-08T20:20:42.441Z,99767.09
2019-02-08T20:23:08.205Z,99766.91
2019-02-08T20:26:15.648Z,99759.02
2019-02-08T20:28:42.650Z,99763.69
2019-02-08T20:31:09.097Z,99767.41
2019-02-08T20:33:34.851Z,99756.25
2019-02-08T20:36:00.615Z,99760.91
2019-02-08T20:38:26.376Z,99747.07
2019-02-08T20:40:52.137Z,99750.67
2019-02-08T20:43:17.899Z,99744.66
2019-02-08T20:45:43.674Z,99745.10
2019-02-08T20:48:51.103Z,99738.70
2019-02-08T20:51:16.878Z,99749.63
2019-02-08T20:53:42.628Z,99737.44
2019-02-08T20:56:08.494Z,99726.59
2019-02-08T21:01:21.575Z,99725.98
2019-02-08T21:03:47.328Z,99723.61
2019-02-08T21:06:13.095Z,99736.42
2019-02-08T21:08:38.855Z,99737.36
2019-02-08T21:11:04.616Z,99723.30
2019-02-08T21:13:30.369Z,99723.08
2019-02-08T21:15:56.138Z,99712.73
2019-02-08T21:18:21.899Z,99715.33
2019-02-08T21:20:47.922Z,99707.67
2019-02-08T21:23:13.653Z,99712.86
2019-02-08T21:26:21.102Z,99712.55
2019-02-08T21:28:46.868Z,99706.45
2019-02-08T21:31:12.643Z,99705.70
2019-02-08T21:33:38.402Z,99700.77
2019-02-08T21:36:04.273Z,99699.41
2019-02-08T21:38:30.030Z,99693.60
2019-02-08T21:40:55.795Z,99691.23
2019-02-08T21:43:21.552Z,99690.02
2019-02-08T21:45:47.326Z,99686.39
2019-02-08T21:48:13.087Z,99684.32
2019-02-08T21:50:38.950Z,99673.66
2019-02-08T21:53:04.808Z,99676.57
2019-02-08T21:55:30.659Z,99664.98
2019-02-08T21:57:56.538Z,99659.29
2019-02-08T22:03:36.331Z,99655.25
2019-02-08T22:06:43.772Z,99654.94
2019-02-08T22:09:09.525Z,99643.78
2019-02-08T22:11:35.293Z,99641.50
2019-02-08T22:14:01.056Z,99630.65
2019-02-08T22:16:26.821Z,99635.31
2019-02-08T22:18:52.577Z,99635.72
2019-02-08T22:21:18.359Z,99624.66
2019-02-08T22:23:44.116Z,99631.06
2019-02-08T22:26:09.881Z,99624.34
2019-02-08T22:28:35.647Z,99621.34
2019-02-08T22:31:01.542Z,99619.27
2019-02-08T22:33:27.298Z,99620.12
2019-02-08T22:36:00.509Z,99609.67
2019-02-08T22:38:26.277Z,99605.02
2019-02-08T22:40:52.050Z,99603.45
2019-02-08T22:43:17.924Z,99598.72
2019-02-08T22:45:43.688Z,99597.78
2019-02-08T22:48:51.124Z,99590.98
2019-02-08T22:51:16.869Z,99590.98
2019-02-08T22:53:42.633Z,99589.33
2019-02-08T22:56:08.408Z,99586.95
2019-02-08T22:58:34.179Z,99588.21
2019-02-08T23:01:41.604Z,99567.13
2019-02-08T23:04:07.380Z,99569.81
2019-02-08T23:06:33.133Z,99570.95
2019-02-08T23:08:58.909Z,99566.50
2019-02-08T23:11:24.769Z,99565.48
2019-02-08T23:13:50.642Z,99568.07
2019-02-08T23:16:16.401Z,99558.36
2019-02-08T23:18:42.160Z,99553.17
2019-02-08T23:21:07.930Z,99551.66
2019-02-08T23:23:33.702Z,99548.84
2019-02-08T23:25:59.461Z,99546.06
2019-02-08T23:28:25.237Z,99550.72
2019-02-08T23:30:51.005Z,99542.45
2019-02-08T23:33:16.770Z,99536.27
2019-02-08T23:35:43.271Z,99535.44
2019-02-08T23:38:10.216Z,99535.44
2019-02-08T23:40:35.971Z,99535.97
2019-02-08T23:43:01.736Z,99534.53
2019-02-08T23:45:27.606Z,99534.13
2019-02-08T23:47:53.378Z,99523.98
2019-02-08T23:51:00.803Z,99524.52
2019-02-08T23:53:26.571Z,99518.22
2019-02-08T23:55:52.330Z,99518.31
2019-02-08T23:58:18.099Z,99506.55
